M/V R.j. Cheramie — WDG3635 — position and weather

sailwx.info

Track history (hours):
 
Tides and Currents Weather Stations Pressure Air Temp Water Temp Dewpoint Dewpoint Depression Visibility Wind Speed Wind Dir Waves Ship Positions

M/V R.j. Cheramie

Owner: D&S Marine Service, LLC R.J. Cheramie, Gray, LA. More information available from US FCC via Universal Licensing System and Coast Guard Vessel Documentation Center.

Last reported at 2017-Oct-14 17:37 UTC. Time now 2017-Oct-20 05:03 UTC.
Position N 29°49' W 092°03'.

Length 24 m; draft 2.7 m.

Type: . MMSI: 367528110.

Date/timePositionNaut miles runAvg speedWind from/ knotsBaromVisibWave heightAir tempDewpointWater temp
2017-Oct-14 17:37N 29°49' W 092°03'1 5.9
2017-Oct-14 17:31N 29°48' W 092°04'3 5.9
2017-Oct-14 17:01N 29°47' W 092°07'4 5.4
2017-Oct-14 16:16N 29°47' W 092°12'1 4.9
2017-Oct-14 16:01N 29°48' W 092°13'3 5.4
2017-Oct-14 15:30N 29°49' W 092°16'2 4.9
2017-Oct-14 15:01N 29°50' W 092°18'28 4.9
2017-Oct-14 09:16N 29°58' W 092°50'1 5.3
2017-Oct-14 09:00N 29°57' W 092°51'2 4.5
2017-Oct-14 08:29N 29°57' W 092°54'3 5.3
2017-Oct-14 08:00N 29°56' W 092°56'2 3.9
2017-Oct-14 07:29N 29°56' W 092°59'3 5.2
2017-Oct-14 06:59N 29°56' W 093°02'3 5.3
2017-Oct-14 06:30N 29°56' W 093°05'2 4.7
2017-Oct-14 06:01N 29°56' W 093°07'2 4.0
2017-Oct-14 05:31N 29°56' W 093°10'2 5.0
2017-Oct-14 05:01N 29°58' W 093°11'2 4.9
2017-Oct-14 04:31N 29°60' W 093°13'2 4.4
2017-Oct-14 04:01N 30°02' W 093°15'2 4.0
2017-Oct-14 03:31N 30°04' W 093°16'2 4.3
2017-Oct-14 03:00N 30°05' W 093°17'1 2.4
2017-Oct-14 02:31N 30°06' W 093°18'0 0.1
2017-Oct-14 02:01N 30°06' W 093°18'0 0.0
2017-Oct-14 01:31N 30°06' W 093°18'0 0.0
2017-Oct-14 01:01N 30°06' W 093°18'0 0.3
2017-Oct-14 00:30N 30°06' W 093°18'2 4.2
2017-Oct-14 00:01N 30°05' W 093°20'2 4.1
2017-Oct-13 23:31N 30°04' W 093°22'2 4.8
2017-Oct-13 23:01N 30°04' W 093°25'3 6.1
2017-Oct-13 22:31N 30°04' W 093°28'0 0.9
2017-Oct-13 22:01N 30°04' W 093°29'3 5.4
2017-Oct-13 21:31N 30°04' W 093°32'2 4.9
2017-Oct-13 21:00N 30°04' W 093°35'72 4.8
2017-Oct-13 06:02N 29°24' W 094°45'0 5.9
2017-Oct-13 06:00N 29°24' W 094°45'3 5.2
2017-Oct-13 05:24N 29°22' W 094°48'1 1.3
2017-Oct-13 05:01N 29°23' W 094°48'9 4.4
2017-Oct-13 02:54N 29°31' W 094°53'2 5.9
2017-Oct-13 02:30N 29°33' W 094°54'3 5.9
2017-Oct-13 02:00N 29°35' W 094°56'3 5.9
2017-Oct-13 01:30N 29°38' W 094°58'3 6.5
2017-Oct-13 01:01N 29°41' W 094°59'4 5.8
2017-Oct-13 00:23N 29°44' W 095°02'3 0.3
2017-Oct-12 13:05N 29°46' W 095°04'0 0.3
2017-Oct-12 12:58N 29°46' W 095°04'1 0.2
2017-Oct-12 07:53N 29°46' W 095°05'1 2.9
2017-Oct-12 07:30N 29°46' W 095°04'3 6.4
2017-Oct-12 07:00N 29°44' W 095°01'3 6.7
2017-Oct-12 06:30N 29°41' W 094°59'4 7.7
2017-Oct-12 06:00N 29°37' W 094°58'4 7.4
2017-Oct-12 05:30N 29°34' W 094°55'4 7.8
2017-Oct-12 05:00N 29°31' W 094°53'131 4.4
2017-Oct-10 23:19N 29°53' W 092°25'2 5.7
2017-Oct-10 23:00N 29°52' W 092°23'3 5.5
2017-Oct-10 22:30N 29°51' W 092°20'3 5.5
2017-Oct-10 22:00N 29°49' W 092°17'3 6.1
2017-Oct-10 21:30N 29°48' W 092°14'3 5.0
2017-Oct-10 21:00N 29°47' W 092°12'1 2.1
2017-Oct-10 20:30N 29°47' W 092°11'3 6.2
2017-Oct-10 20:00N 29°47' W 092°07'3 6.8
2017-Oct-10 19:30N 29°49' W 092°03'3 6.0
2017-Oct-10 19:00N 29°50' W 092°00'  
2017-Oct-08 07:18N 29°49' W 092°03'2 5.7
2017-Oct-08 07:00N 29°48' W 092°05'3 5.7
2017-Oct-08 06:30N 29°47' W 092°08'3 5.1
2017-Oct-08 06:00N 29°47' W 092°11'1 3.0
2017-Oct-08 05:30N 29°47' W 092°13'1 1.5
2017-Oct-08 05:00N 29°48' W 092°13'1 2.2
2017-Oct-08 04:30N 29°48' W 092°15'1 1.3
2017-Oct-08 04:00N 29°48' W 092°15'3 5.0
2017-Oct-08 03:30N 29°50' W 092°18'38 5.0
2017-Oct-07 19:52N 29°56' W 093°01'2 5.1
2017-Oct-07 19:30N 29°56' W 093°03'2 5.0
2017-Oct-07 19:00N 29°56' W 093°06'3 5.1
2017-Oct-07 18:30N 29°56' W 093°09'2 4.6
2017-Oct-07 18:00N 29°58' W 093°11'3 5.2
2017-Oct-07 17:30N 29°60' W 093°13'2 4.7
2017-Oct-07 17:00N 30°02' W 093°14'2 3.7
2017-Oct-07 16:31N 30°03' W 093°16'2 4.9
2017-Oct-07 16:00N 30°05' W 093°17'1 2.4
2017-Oct-07 15:30N 30°06' W 093°18'2 4.5
2017-Oct-07 15:00N 30°05' W 093°20'2 3.6
2017-Oct-07 14:30N 30°04' W 093°22'2 4.5
2017-Oct-07 14:00N 30°04' W 093°25'3 5.2
2017-Oct-07 13:30N 30°04' W 093°28'3 5.0
2017-Oct-07 13:01N 30°04' W 093°31'78 4.0
2017-Oct-06 17:33N 29°30' W 094°52'0 6.8
2017-Oct-06 17:30N 29°30' W 094°52'3 6.9
2017-Oct-06 17:00N 29°33' W 094°54'3 6.8
2017-Oct-06 16:30N 29°36' W 094°57'3 6.7
2017-Oct-06 16:00N 29°39' W 094°58'3 6.9
2017-Oct-06 15:30N 29°42' W 094°60'3 6.0
2017-Oct-06 14:58N 29°44' W 095°03'3 1.1
2017-Oct-06 11:47N 29°47' W 095°04'0 0.4
2017-Oct-06 11:28N 29°47' W 095°05'2 1.4
2017-Oct-06 10:24N 29°46' W 095°06'1 2.8
2017-Oct-06 09:55N 29°47' W 095°05'0 0.7
2017-Oct-06 09:30N 29°47' W 095°04'2 1.1
2017-Oct-06 07:53N 29°45' W 095°06'1 0.0
2017-Oct-05 05:06N 29°46' W 095°07'1 4.7
2017-Oct-05 04:55N 29°45' W 095°06'0 0.1
2017-Oct-05 02:15N 29°45' W 095°06'0 0.0
2017-Oct-05 01:53N 29°45' W 095°06'0 0.0
2017-Oct-05 01:30N 29°45' W 095°06'0 0.0
2017-Oct-05 00:52N 29°45' W 095°06'0 0.0
2017-Oct-04 23:30N 29°45' W 095°06'0 0.3
2017-Oct-04 22:58N 29°45' W 095°06'0 0.0
2017-Oct-04 22:24N 29°45' W 095°06'1 0.4
2017-Oct-04 21:05N 29°46' W 095°05'0 5.9
2017-Oct-04 21:00N 29°45' W 095°06'3 5.6
2017-Oct-04 20:29N 29°44' W 095°09'1 1.2
2017-Oct-04 19:17N 29°45' W 095°10'  
Track history (hours):
 
Tides and Currents Weather Stations Pressure Air Temp Water Temp Dewpoint Dewpoint Depression Visibility Wind Speed Wind Dir Waves Ship Positions

M/V R.j. Cheramie

Owner: D&S Marine Service, LLC R.J. Cheramie, Gray, LA. More information available from US FCC via Universal Licensing System and Coast Guard Vessel Documentation Center.

Last reported at 2017-Oct-14 17:37 UTC. Time now 2017-Oct-20 05:03 UTC.
Position N 29°49' W 092°03'.

Length 24 m; draft 2.7 m.

Type: . MMSI: 367528110.

Date/timePositionNaut miles runAvg speedWind from/ knotsBaromVisibWave heightAir tempDewpointWater temp
2017-Oct-14 17:37N 29°49' W 092°03'1 5.9
2017-Oct-14 17:31N 29°48' W 092°04'3 5.9
2017-Oct-14 17:01N 29°47' W 092°07'4 5.4
2017-Oct-14 16:16N 29°47' W 092°12'1 4.9
2017-Oct-14 16:01N 29°48' W 092°13'3 5.4
2017-Oct-14 15:30N 29°49' W 092°16'2 4.9
2017-Oct-14 15:01N 29°50' W 092°18'28 4.9
2017-Oct-14 09:16N 29°58' W 092°50'1 5.3
2017-Oct-14 09:00N 29°57' W 092°51'2 4.5
2017-Oct-14 08:29N 29°57' W 092°54'3 5.3
2017-Oct-14 08:00N 29°56' W 092°56'2 3.9
2017-Oct-14 07:29N 29°56' W 092°59'3 5.2
2017-Oct-14 06:59N 29°56' W 093°02'3 5.3
2017-Oct-14 06:30N 29°56' W 093°05'2 4.7
2017-Oct-14 06:01N 29°56' W 093°07'2 4.0
2017-Oct-14 05:31N 29°56' W 093°10'2 5.0
2017-Oct-14 05:01N 29°58' W 093°11'2 4.9
2017-Oct-14 04:31N 29°60' W 093°13'2 4.4
2017-Oct-14 04:01N 30°02' W 093°15'2 4.0
2017-Oct-14 03:31N 30°04' W 093°16'2 4.3
2017-Oct-14 03:00N 30°05' W 093°17'1 2.4
2017-Oct-14 02:31N 30°06' W 093°18'0 0.1
2017-Oct-14 02:01N 30°06' W 093°18'0 0.0
2017-Oct-14 01:31N 30°06' W 093°18'0 0.0
2017-Oct-14 01:01N 30°06' W 093°18'0 0.3
2017-Oct-14 00:30N 30°06' W 093°18'2 4.2
2017-Oct-14 00:01N 30°05' W 093°20'2 4.1
2017-Oct-13 23:31N 30°04' W 093°22'2 4.8
2017-Oct-13 23:01N 30°04' W 093°25'3 6.1
2017-Oct-13 22:31N 30°04' W 093°28'0 0.9
2017-Oct-13 22:01N 30°04' W 093°29'3 5.4
2017-Oct-13 21:31N 30°04' W 093°32'2 4.9
2017-Oct-13 21:00N 30°04' W 093°35'72 4.8
2017-Oct-13 06:02N 29°24' W 094°45'0 5.9
2017-Oct-13 06:00N 29°24' W 094°45'3 5.2
2017-Oct-13 05:24N 29°22' W 094°48'1 1.3
2017-Oct-13 05:01N 29°23' W 094°48'9 4.4
2017-Oct-13 02:54N 29°31' W 094°53'2 5.9
2017-Oct-13 02:30N 29°33' W 094°54'3 5.9
2017-Oct-13 02:00N 29°35' W 094°56'3 5.9
2017-Oct-13 01:30N 29°38' W 094°58'3 6.5
2017-Oct-13 01:01N 29°41' W 094°59'4 5.8
2017-Oct-13 00:23N 29°44' W 095°02'3 0.3
2017-Oct-12 13:05N 29°46' W 095°04'0 0.3
2017-Oct-12 12:58N 29°46' W 095°04'1 0.2
2017-Oct-12 07:53N 29°46' W 095°05'1 2.9
2017-Oct-12 07:30N 29°46' W 095°04'3 6.4
2017-Oct-12 07:00N 29°44' W 095°01'3 6.7
2017-Oct-12 06:30N 29°41' W 094°59'4 7.7
2017-Oct-12 06:00N 29°37' W 094°58'4 7.4
2017-Oct-12 05:30N 29°34' W 094°55'4 7.8
2017-Oct-12 05:00N 29°31' W 094°53'131 4.4
2017-Oct-10 23:19N 29°53' W 092°25'2 5.7
2017-Oct-10 23:00N 29°52' W 092°23'3 5.5
2017-Oct-10 22:30N 29°51' W 092°20'3 5.5
2017-Oct-10 22:00N 29°49' W 092°17'3 6.1
2017-Oct-10 21:30N 29°48' W 092°14'3 5.0
2017-Oct-10 21:00N 29°47' W 092°12'1 2.1
2017-Oct-10 20:30N 29°47' W 092°11'3 6.2
2017-Oct-10 20:00N 29°47' W 092°07'3 6.8
2017-Oct-10 19:30N 29°49' W 092°03'3 6.0
2017-Oct-10 19:00N 29°50' W 092°00'  
2017-Oct-08 07:18N 29°49' W 092°03'2 5.7
2017-Oct-08 07:00N 29°48' W 092°05'3 5.7
2017-Oct-08 06:30N 29°47' W 092°08'3 5.1
2017-Oct-08 06:00N 29°47' W 092°11'1 3.0
2017-Oct-08 05:30N 29°47' W 092°13'1 1.5
2017-Oct-08 05:00N 29°48' W 092°13'1 2.2
2017-Oct-08 04:30N 29°48' W 092°15'1 1.3
2017-Oct-08 04:00N 29°48' W 092°15'3 5.0
2017-Oct-08 03:30N 29°50' W 092°18'38 5.0
2017-Oct-07 19:52N 29°56' W 093°01'2 5.1
2017-Oct-07 19:30N 29°56' W 093°03'2 5.0
2017-Oct-07 19:00N 29°56' W 093°06'3 5.1
2017-Oct-07 18:30N 29°56' W 093°09'2 4.6
2017-Oct-07 18:00N 29°58' W 093°11'3 5.2
2017-Oct-07 17:30N 29°60' W 093°13'2 4.7
2017-Oct-07 17:00N 30°02' W 093°14'2 3.7
2017-Oct-07 16:31N 30°03' W 093°16'2 4.9
2017-Oct-07 16:00N 30°05' W 093°17'1 2.4
2017-Oct-07 15:30N 30°06' W 093°18'2 4.5
2017-Oct-07 15:00N 30°05' W 093°20'2 3.6
2017-Oct-07 14:30N 30°04' W 093°22'2 4.5
2017-Oct-07 14:00N 30°04' W 093°25'3 5.2
2017-Oct-07 13:30N 30°04' W 093°28'3 5.0
2017-Oct-07 13:01N 30°04' W 093°31'78 4.0
2017-Oct-06 17:33N 29°30' W 094°52'0 6.8
2017-Oct-06 17:30N 29°30' W 094°52'3 6.9
2017-Oct-06 17:00N 29°33' W 094°54'3 6.8
2017-Oct-06 16:30N 29°36' W 094°57'3 6.7
2017-Oct-06 16:00N 29°39' W 094°58'3 6.9
2017-Oct-06 15:30N 29°42' W 094°60'3 6.0
2017-Oct-06 14:58N 29°44' W 095°03'3 1.1
2017-Oct-06 11:47N 29°47' W 095°04'0 0.4
2017-Oct-06 11:28N 29°47' W 095°05'2 1.4
2017-Oct-06 10:24N 29°46' W 095°06'1 2.8
2017-Oct-06 09:55N 29°47' W 095°05'0 0.7
2017-Oct-06 09:30N 29°47' W 095°04'2 1.1
2017-Oct-06 07:53N 29°45' W 095°06'1 0.0
2017-Oct-05 05:06N 29°46' W 095°07'1 4.7
2017-Oct-05 04:55N 29°45' W 095°06'0 0.1
2017-Oct-05 02:15N 29°45' W 095°06'0 0.0
2017-Oct-05 01:53N 29°45' W 095°06'0 0.0
2017-Oct-05 01:30N 29°45' W 095°06'0 0.0
2017-Oct-05 00:52N 29°45' W 095°06'0 0.0
2017-Oct-04 23:30N 29°45' W 095°06'0 0.3
2017-Oct-04 22:58N 29°45' W 095°06'0 0.0
2017-Oct-04 22:24N 29°45' W 095°06'1 0.4
2017-Oct-04 21:05N 29°46' W 095°05'0 5.9
2017-Oct-04 21:00N 29°45' W 095°06'3 5.6
2017-Oct-04 20:29N 29°44' W 095°09'1 1.2
2017-Oct-04 19:17N 29°45' W 095°10'  

Dump ship's entire track history